Time;durP1;ratioP1;P1;durP2;ratioP2;P2;SDS_P1;SDS_P2;PMS_P1;PMS_P2;Temp;Humidity;BMP_temperature;BMP_pressure;BME280_temperature;BME280_humidity;BME280_pressure;Samples;Min_cycle;Max_cycle;Signal;HPM_P1;HPM_P2
2022/09/02 00:00:59;;;;;;;4.05;1.90;;;13.80;83.40;;;;;;5000737;28;20529;-85
2022/09/02 00:03:26;;;;;;;5.50;1.90;;;13.80;1.00;;;;;;5025369;28;20623;-85
2022/09/02 00:05:52;;;;;;;3.33;2.25;;;13.70;1.00;;;;;;5000907;28;20033;-85
2022/09/02 00:08:18;;;;;;;2.60;1.90;;;13.70;14.80;;;;;;4974906;28;20227;-85
2022/09/02 00:10:44;;;;;;;4.30;1.80;;;13.60;12.40;;;;;;4988499;28;20435;-85
2022/09/02 00:13:13;;;;;;;3.30;2.20;;;13.60;42.10;;;;;;4972065;28;20121;-85
2022/09/02 00:15:40;;;;;;;4.85;1.98;;;13.50;98.30;;;;;;4986924;28;20081;-84
2022/09/02 00:18:06;;;;;;;2.88;1.85;;;13.60;99.90;;;;;;4994038;28;20543;-84
2022/09/02 00:20:32;;;;;;;4.18;1.90;;;13.50;99.90;;;;;;5009273;28;20046;-84
2022/09/02 00:22:58;;;;;;;2.72;1.98;;;13.40;99.90;;;;;;4993406;28;20045;-85
2022/09/02 00:25:24;;;;;;;4.43;2.05;;;13.40;99.90;;;;;;5010739;28;20505;-84
2022/09/02 00:27:50;;;;;;;2.13;1.80;;;13.30;99.90;;;;;;4991284;28;20038;-85
2022/09/02 00:30:18;;;;;;;3.13;1.80;;;13.30;99.90;;;;;;4997121;28;20172;-85
2022/09/02 00:32:44;;;;;;;2.30;1.90;;;13.30;99.90;;;;;;4967895;28;20313;-84
2022/09/02 00:35:10;;;;;;;3.22;2.05;;;13.20;99.90;;;;;;4984814;28;20446;-85
2022/09/02 00:37:36;;;;;;;2.67;1.90;;;13.20;99.90;;;;;;4971165;28;20042;-84
2022/09/02 00:40:04;;;;;;;4.03;2.10;;;13.20;99.90;;;;;;4990845;28;20045;-85
2022/09/02 00:42:30;;;;;;;3.17;1.90;;;13.20;99.90;;;;;;4966371;28;20038;-85
2022/09/02 00:44:56;;;;;;;4.63;2.00;;;13.10;99.90;;;;;;5007244;28;20108;-85
2022/09/02 00:47:21;;;;;;;2.38;2.03;;;13.10;99.90;;;;;;4986850;28;20034;-84
2022/09/02 00:49:51;;;;;;;3.80;2.20;;;13.10;99.90;;;;;;4971101;28;20129;-85
2022/09/02 00:52:23;;;;;;;4.00;2.45;;;13.00;99.90;;;;;;4993560;28;20049;-85
2022/09/02 00:55:05;;;;;;;4.03;1.90;;;13.00;99.90;;;;;;4967318;28;20041;-85
2022/09/02 00:57:35;;;;;;;2.75;2.00;;;13.00;1.00;;;;;;4984318;28;20215;-85
2022/09/02 01:00:16;;;;;;;2.40;1.85;;;13.00;1.00;;;;;;4980279;28;20165;-85
2022/09/02 01:02:45;;;;;;;6.13;2.00;;;13.00;99.90;;;;;;4992062;28;20038;-85
2022/09/02 01:05:14;;;;;;;4.63;2.00;;;13.00;1.00;;;;;;5012912;28;20034;-85
2022/09/02 01:07:42;;;;;;;2.78;1.90;;;12.90;99.90;;;;;;5004946;28;20069;-84
2022/09/02 01:10:18;;;;;;;3.15;1.90;;;13.00;1.00;;;;;;5011069;28;20412;-85
2022/09/02 01:12:45;;;;;;;3.13;1.90;;;12.90;1.00;;;;;;4993274;28;20030;-84
2022/09/02 01:15:12;;;;;;;2.60;1.90;;;12.90;1.00;;;;;;5035301;28;20112;-85
2022/09/02 01:17:45;;;;;;;2.63;1.98;;;12.90;1.00;;;;;;4997134;28;20099;-85
2022/09/02 01:20:14;;;;;;;3.08;2.13;;;12.90;1.00;;;;;;4989400;28;20200;-84
2022/09/02 01:22:41;;;;;;;3.05;2.08;;;12.80;88.40;;;;;;4992835;28;20122;-85
2022/09/02 01:25:14;;;;;;;3.70;2.05;;;12.80;17.20;;;;;;4994117;28;20320;-84
2022/09/02 01:27:40;;;;;;;2.78;1.80;;;12.70;98.60;;;;;;5021139;28;20575;-84
2022/09/02 01:30:10;;;;;;;2.58;1.88;;;12.70;24.00;;;;;;5008274;28;20112;-84
2022/09/02 01:32:36;;;;;;;2.28;1.75;;;12.70;99.90;;;;;;4996478;28;20496;-85
2022/09/02 01:35:05;;;;;;;4.80;1.92;;;12.70;99.90;;;;;;4980380;28;20038;-85
2022/09/02 01:37:32;;;;;;;2.92;2.10;;;12.60;99.90;;;;;;4994966;28;20068;-85
2022/09/02 01:39:59;;;;;;;5.10;2.00;;;12.60;99.90;;;;;;5021445;28;20045;-85
2022/09/02 01:42:25;;;;;;;3.38;1.98;;;12.50;99.90;;;;;;5016611;28;20053;-84
2022/09/02 01:44:50;;;;;;;4.03;2.08;;;12.50;99.90;;;;;;5019593;28;20160;-85
2022/09/02 01:47:20;;;;;;;2.95;2.00;;;12.50;99.90;;;;;;5021403;28;20041;-85
2022/09/02 01:49:46;;;;;;;3.22;2.28;;;12.50;99.90;;;;;;5021630;28;20037;-84
2022/09/02 01:52:13;;;;;;;2.25;1.90;;;12.50;99.90;;;;;;4995061;28;20033;-85
2022/09/02 01:54:39;;;;;;;3.33;2.40;;;12.40;99.90;;;;;;5005947;28;20064;-85
2022/09/02 01:57:05;;;;;;;4.22;1.80;;;12.40;99.90;;;;;;4994940;28;20229;-85
2022/09/02 01:59:31;;;;;;;4.70;1.92;;;12.30;99.90;;;;;;5022008;28;20632;-85
2022/09/02 02:01:56;;;;;;;3.20;2.00;;;12.30;99.90;;;;;;5011631;28;20041;-86
2022/09/02 02:04:26;;;;;;;2.38;2.05;;;12.30;99.90;;;;;;4986062;28;20193;-85
2022/09/02 02:06:52;;;;;;;2.53;2.00;;;12.30;99.90;;;;;;4990450;28;20061;-85
2022/09/02 02:09:18;;;;;;;4.53;2.10;;;12.30;99.90;;;;;;5015591;28;20029;-85
2022/09/02 02:11:45;;;;;;;3.10;1.77;;;12.30;99.90;;;;;;4989862;28;20470;-85
2022/09/02 02:14:11;;;;;;;2.92;1.85;;;12.30;1.00;;;;;;5003689;28;20034;-85
2022/09/02 02:16:37;;;;;;;3.22;2.10;;;12.30;1.00;;;;;;5004808;28;20402;-85
2022/09/02 02:19:04;;;;;;;3.17;2.17;;;12.20;1.00;;;;;;4987994;28;20048;-85
2022/09/02 02:21:30;;;;;;;2.45;2.20;;;12.20;99.90;;;;;;5015227;28;20041;-85
2022/09/02 02:24:00;;;;;;;2.85;2.33;;;12.20;99.90;;;;;;4985416;28;20041;-85
2022/09/02 02:26:26;;;;;;;3.10;2.08;;;12.20;1.00;;;;;;4991080;28;20045;-85
2022/09/02 02:28:52;;;;;;;3.83;2.30;;;12.20;1.00;;;;;;5008743;28;20047;-85
2022/09/02 02:31:18;;;;;;;2.63;1.90;;;12.10;1.00;;;;;;5012427;28;20040;-85
2022/09/02 02:33:44;;;;;;;2.83;2.17;;;12.10;1.00;;;;;;4987344;28;20072;-85
2022/09/02 02:36:10;;;;;;;2.42;1.98;;;12.10;1.00;;;;;;4991035;28;20046;-84
2022/09/02 02:38:37;;;;;;;4.70;2.00;;;12.10;1.00;;;;;;4988165;28;20045;-85
2022/09/02 02:41:05;;;;;;;2.33;1.92;;;12.10;1.00;;;;;;5007187;28;20479;-85
2022/09/02 02:43:32;;;;;;;2.85;2.05;;;12.10;1.00;;;;;;4984801;28;20242;-85
2022/09/02 02:45:58;;;;;;;2.22;2.00;;;12.00;1.00;;;;;;5021421;28;20136;-86
2022/09/02 02:48:24;;;;;;;3.47;2.10;;;12.00;1.00;;;;;;4991843;28;20034;-85
2022/09/02 02:50:50;;;;;;;2.50;1.98;;;11.90;48.00;;;;;;5018363;28;20095;-85
2022/09/02 02:53:16;;;;;;;3.42;1.83;;;12.00;89.30;;;;;;5001465;28;20034;-84
2022/09/02 02:55:42;;;;;;;3.33;1.98;;;12.00;72.00;;;;;;5036323;28;20532;-85
2022/09/02 02:58:08;;;;;;;2.70;2.17;;;11.90;99.90;;;;;;5015568;28;20428;-85
2022/09/02 03:00:35;;;;;;;3.35;2.00;;;11.90;49.20;;;;;;5005252;28;20144;-84
2022/09/02 03:03:08;;;;;;;2.55;2.03;;;11.90;8.60;;;;;;4988749;28;20037;-85
2022/09/02 03:05:36;;;;;;;5.45;2.28;;;11.90;73.80;;;;;;4995562;28;20473;-85
2022/09/02 03:08:06;;;;;;;3.60;2.25;;;11.90;99.90;;;;;;4994063;28;20046;-84
2022/09/02 03:10:33;;;;;;;3.10;2.40;;;11.80;91.80;;;;;;4993915;28;20103;-84
2022/09/02 03:12:59;;;;;;;3.50;2.03;;;11.80;70.40;;;;;;4991611;28;20120;-85
2022/09/02 03:15:26;;;;;;;3.83;2.40;;;11.80;99.90;;;;;;4991112;28;20446;-85
2022/09/02 03:17:52;;;;;;;2.55;2.30;;;11.80;99.90;;;;;;5012415;28;20103;-84
2022/09/02 03:20:18;;;;;;;2.85;2.10;;;11.70;99.90;;;;;;4990784;28;20539;-85
2022/09/02 03:22:46;;;;;;;3.38;2.13;;;11.70;99.90;;;;;;5028494;28;20042;-84
2022/09/02 03:25:15;;;;;;;2.25;2.05;;;11.70;99.90;;;;;;5018207;28;20980;-85
2022/09/02 03:27:43;;;;;;;3.00;2.20;;;11.60;99.90;;;;;;5005487;28;20164;-85
2022/09/02 03:30:12;;;;;;;2.53;2.28;;;11.60;99.90;;;;;;4979798;28;20134;-85
2022/09/02 03:32:38;;;;;;;2.38;2.17;;;11.60;99.90;;;;;;4987711;28;20383;-85
2022/09/02 03:35:06;;;;;;;3.22;2.15;;;11.60;99.90;;;;;;5021920;28;20037;-85
2022/09/02 03:37:33;;;;;;;3.25;2.40;;;11.60;99.90;;;;;;4987443;28;20375;-84
2022/09/02 03:40:05;;;;;;;3.20;2.28;;;11.60;99.90;;;;;;4994429;28;20045;-84
2022/09/02 03:42:30;;;;;;;3.45;2.20;;;11.60;99.90;;;;;;5006207;28;20049;-84
2022/09/02 03:44:56;;;;;;;2.97;2.28;;;11.50;99.90;;;;;;5015418;28;20416;-86
2022/09/02 03:47:22;;;;;;;2.20;2.00;;;11.50;99.90;;;;;;5008920;28;20069;-86
2022/09/02 03:49:48;;;;;;;3.78;2.30;;;11.50;99.90;;;;;;4980285;28;20038;-86
2022/09/02 03:52:14;;;;;;;3.38;3.08;;;11.50;99.90;;;;;;4988707;28;20095;-86
2022/09/02 03:54:39;;;;;;;3.50;2.35;;;11.50;99.90;;;;;;5032874;28;20062;-86
2022/09/02 03:57:05;;;;;;;3.85;2.30;;;11.40;99.90;;;;;;5034924;28;20248;-86
2022/09/02 03:59:31;;;;;;;4.97;2.50;;;11.40;99.90;;;;;;5025199;28;20056;-86
2022/09/02 04:01:56;;;;;;;4.03;2.17;;;11.30;1.00;;;;;;5039397;28;20453;-86
2022/09/02 04:04:23;;;;;;;2.63;2.42;;;11.30;1.00;;;;;;5001283;28;20038;-86
2022/09/02 04:06:49;;;;;;;2.55;2.13;;;11.30;1.00;;;;;;4994564;28;20141;-86
2022/09/02 04:09:14;;;;;;;3.30;2.40;;;11.30;1.00;;;;;;5020428;28;20045;-87
2022/09/02 04:11:41;;;;;;;2.60;2.30;;;11.30;1.00;;;;;;5006673;28;20079;-86
2022/09/02 04:14:08;;;;;;;3.28;2.50;;;11.20;1.00;;;;;;4994948;28;20418;-86
2022/09/02 04:16:34;;;;;;;3.42;2.58;;;11.20;99.90;;;;;;5034504;28;20041;-86
2022/09/02 04:19:01;;;;;;;2.85;2.42;;;11.20;36.10;;;;;;4984135;28;20091;-86
2022/09/02 04:21:28;;;;;;;3.75;2.70;;;11.20;99.90;;;;;;5017648;28;20056;-86
2022/09/02 04:23:55;;;;;;;3.90;2.47;;;11.10;99.90;;;;;;5002935;28;20045;-86
2022/09/02 04:26:21;;;;;;;3.38;2.58;;;11.20;99.90;;;;;;5003477;28;20077;-86
2022/09/02 04:28:48;;;;;;;6.57;2.47;;;11.20;99.90;;;;;;4997637;28;20046;-85
2022/09/02 04:31:16;;;;;;;3.67;2.63;;;11.10;99.90;;;;;;5016582;28;20034;-86
2022/09/02 04:33:43;;;;;;;3.17;2.45;;;11.10;99.90;;;;;;5018039;28;20712;-86
2022/09/02 04:36:12;;;;;;;4.60;2.60;;;11.00;99.90;;;;;;5004393;28;20354;-86
2022/09/02 04:38:38;;;;;;;4.82;2.67;;;11.00;99.90;;;;;;4996039;28;20478;-84
2022/09/02 04:41:15;;;;;;;3.17;2.60;;;11.00;99.90;;;;;;5010053;28;20125;-86
2022/09/02 04:43:41;;;;;;;4.38;2.45;;;10.90;99.90;;;;;;5014603;28;20057;-86
2022/09/02 04:46:09;;;;;;;3.15;2.53;;;10.90;99.90;;;;;;5012480;28;20041;-86
2022/09/02 04:48:35;;;;;;;2.80;2.38;;;10.90;99.90;;;;;;5017996;28;20115;-86
2022/09/02 04:51:21;;;;;;;3.97;2.85;;;11.00;99.90;;;;;;5031891;28;20046;-86
2022/09/02 04:53:48;;;;;;;2.83;2.60;;;10.90;1.00;;;;;;4988578;28;20062;-86
2022/09/02 04:56:17;;;;;;;3.33;2.90;;;10.90;1.00;;;;;;4996282;28;20120;-86
2022/09/02 04:58:44;;;;;;;3.10;2.40;;;10.90;99.90;;;;;;4987591;28;20042;-86
2022/09/02 05:01:16;;;;;;;3.20;2.70;;;10.90;99.90;;;;;;4990932;28;20033;-87
2022/09/02 05:03:44;;;;;;;4.90;2.65;;;10.90;1.00;;;;;;5024193;28;20439;-86
2022/09/02 05:06:12;;;;;;;3.53;2.78;;;11.00;1.00;;;;;;5019605;28;20309;-86
2022/09/02 05:08:42;;;;;;;4.45;2.92;;;11.00;1.00;;;;;;5015347;28;20529;-86
2022/09/02 05:11:17;;;;;;;5.18;2.88;;;11.00;99.90;;;;;;5019360;28;20033;-86
2022/09/02 05:13:43;;;;;;;;;;;11.00;99.90;;;;;;5019139;28;20046;-86
2022/09/02 05:16:09;;;;;;;2.90;2.60;;;11.10;99.90;;;;;;4995333;28;19944;-86
2022/09/02 05:18:34;;;;;;;7.38;3.30;;;11.10;99.90;;;;;;4988953;28;20042;-86
2022/09/02 05:21:05;;;;;;;4.47;2.65;;;11.10;99.90;;;;;;4997054;28;20060;-86
2022/09/02 05:23:31;;;;;;;5.18;3.15;;;11.10;1.00;;;;;;4986530;28;20314;-86
2022/09/02 05:25:56;;;;;;;4.20;2.92;;;11.20;1.00;;;;;;5033527;28;20463;-86
2022/09/02 05:28:22;;;;;;;4.40;4.00;;;11.30;1.00;;;;;;4979555;28;20061;-86
2022/09/02 05:30:48;;;;;;;4.72;3.33;;;11.30;99.90;;;;;;5021223;28;20041;-86
2022/09/02 05:33:14;;;;;;;5.35;3.28;;;11.40;99.90;;;;;;5023166;28;20033;-86
2022/09/02 05:35:43;;;;;;;5.57;3.13;;;11.50;99.90;;;;;;4994868;28;20065;-86
2022/09/02 05:38:09;;;;;;;7.15;3.15;;;11.60;99.90;;;;;;4989673;28;20491;-86
2022/09/02 05:40:38;;;;;;;5.15;3.20;;;11.70;99.90;;;;;;4995918;28;20378;-86
2022/09/02 05:43:06;;;;;;;4.05;3.20;;;11.80;99.90;;;;;;4991387;28;20179;-86
2022/09/02 05:45:33;;;;;;;3.90;3.10;;;11.90;99.90;;;;;;5018093;28;20576;-86
2022/09/02 05:47:58;;;;;;;3.92;3.15;;;12.00;99.90;;;;;;5007408;28;20037;-86
2022/09/02 05:50:44;;;;;;;5.45;3.08;;;12.10;99.90;;;;;;5011856;28;20041;-86
2022/09/02 05:53:09;;;;;;;4.38;3.00;;;12.20;1.00;;;;;;4995436;28;20040;-86
2022/09/02 05:55:35;;;;;;;3.50;3.20;;;12.30;38.80;;;;;;5017461;28;20103;-86
2022/09/02 05:58:01;;;;;;;4.22;3.00;;;12.40;1.00;;;;;;4992055;28;20037;-86
2022/09/02 06:00:28;;;;;;;5.40;2.90;;;12.50;99.90;;;;;;4995445;28;20041;-86
2022/09/02 06:02:54;;;;;;;3.05;2.83;;;12.50;99.90;;;;;;4991372;28;20080;-86
2022/09/02 06:05:20;;;;;;;3.90;3.20;;;12.60;99.90;;;;;;5008675;28;20036;-86
2022/09/02 06:07:46;;;;;;;4.30;3.00;;;12.70;99.90;;;;;;5003940;28;20489;-86
2022/09/02 06:10:12;;;;;;;4.32;3.35;;;12.80;99.90;;;;;;5020865;28;20037;-86
2022/09/02 06:12:42;;;;;;;5.55;3.47;;;12.90;99.90;;;;;;4996233;28;20034;-86
2022/09/02 06:15:09;;;;;;;4.50;2.90;;;13.00;99.90;;;;;;4994906;28;20116;-86
2022/09/02 06:17:35;;;;;;;4.20;3.10;;;13.00;54.10;;;;;;4989954;28;20071;-85
2022/09/02 06:20:01;;;;;;;4.68;3.08;;;13.10;1.00;;;;;;5023911;28;20051;-86
2022/09/02 06:22:27;;;;;;;3.50;3.20;;;13.10;1.00;;;;;;5021297;28;20458;-86
2022/09/02 06:24:53;;;;;;;4.68;3.45;;;13.30;1.00;;;;;;4998202;28;20129;-86
2022/09/02 06:27:21;;;;;;;3.40;3.10;;;13.40;1.00;;;;;;4996738;28;20475;-86
2022/09/02 06:29:50;;;;;;;8.15;3.28;;;13.40;99.90;;;;;;4977317;28;20038;-86
2022/09/02 06:32:15;;;;;;;3.90;3.30;;;13.50;99.90;;;;;;5018695;28;20060;-86
2022/09/02 06:34:41;;;;;;;5.40;3.45;;;13.60;99.90;;;;;;4980659;28;20445;-86
2022/09/02 06:37:06;;;;;;;4.03;3.08;;;13.80;99.90;;;;;;5009431;28;20136;-85
2022/09/02 06:39:36;;;;;;;4.60;3.05;;;13.80;99.90;;;;;;5008220;28;20030;-86
2022/09/02 06:42:03;;;;;;;4.25;3.20;;;13.90;99.90;;;;;;4988781;28;20581;-86
2022/09/02 06:44:28;;;;;;;4.03;3.08;;;14.00;99.90;;;;;;5032903;28;20077;-86
2022/09/02 06:46:56;;;;;;;5.05;2.70;;;14.00;99.90;;;;;;5004879;28;20066;-86
2022/09/02 06:49:24;;;;;;;3.35;2.83;;;14.10;1.00;;;;;;4973129;28;20029;-86
2022/09/02 06:51:52;;;;;;;4.53;3.03;;;14.30;1.00;;;;;;5015413;28;20404;-86
2022/09/02 06:54:20;;;;;;;6.22;3.05;;;14.40;1.00;;;;;;4984199;28;20038;-86
2022/09/02 06:56:46;;;;;;;5.20;2.90;;;14.50;1.00;;;;;;4991292;28;20037;-86
2022/09/02 06:59:12;;;;;;;8.95;2.88;;;14.60;1.00;;;;;;4981076;28;20121;-86
2022/09/02 07:01:38;;;;;;;5.38;3.00;;;14.70;99.90;;;;;;5017042;28;20533;-86
2022/09/02 07:06:51;;;;;;;3.70;3.03;;;14.80;99.90;;;;;;5025603;28;20046;-86
2022/09/02 07:09:21;;;;;;;3.30;2.85;;;14.90;99.90;;;;;;4983034;28;20125;-86
2022/09/02 07:11:48;;;;;;;3.88;3.10;;;15.00;48.50;;;;;;5006422;28;20141;-84
2022/09/02 07:14:18;;;;;;;7.25;3.22;;;15.10;1.00;;;;;;5000556;28;20051;-84
2022/09/02 07:16:47;;;;;;;4.40;2.70;;;15.20;99.90;;;;;;5026253;28;20070;-84
2022/09/02 07:19:13;;;;;;;3.28;2.70;;;15.30;99.90;;;;;;4986563;28;20116;-85
2022/09/02 07:21:41;;;;;;;4.15;2.70;;;15.40;99.90;;;;;;5000228;28;20434;-84
2022/09/02 07:24:08;;;;;;;3.75;2.70;;;15.50;99.90;;;;;;4986486;28;20049;-85
2022/09/02 07:26:34;;;;;;;3.83;2.33;;;15.60;99.90;;;;;;5008534;28;20409;-85
2022/09/02 07:29:00;;;;;;;3.60;2.70;;;15.70;99.90;;;;;;5005889;28;20336;-84
2022/09/02 07:31:28;;;;;;;5.55;2.50;;;15.80;99.90;;;;;;5013887;28;20461;-84
2022/09/02 07:33:58;;;;;;;2.63;2.38;;;15.80;99.90;;;;;;5017106;28;20033;-84
2022/09/02 07:36:27;;;;;;;6.35;2.70;;;15.90;43.50;;;;;;4989155;28;20509;-84
2022/09/02 07:38:53;;;;;;;4.72;2.50;;;16.00;36.40;;;;;;4982760;28;20115;-85
2022/09/02 07:41:20;;;;;;;9.45;2.63;;;16.10;27.80;;;;;;4990106;28;20520;-85
2022/09/02 07:43:45;;;;;;;4.75;2.50;;;16.20;1.00;;;;;;5021700;28;20049;-85
2022/09/02 07:46:11;;;;;;;4.13;2.53;;;16.30;1.00;;;;;;5012632;28;20778;-84
2022/09/02 07:48:37;;;;;;;2.65;2.20;;;16.40;1.00;;;;;;4993090;28;20369;-85
2022/09/02 07:51:07;;;;;;;3.72;2.15;;;16.50;1.00;;;;;;5019534;28;20044;-85
2022/09/02 07:53:35;;;;;;;4.90;2.20;;;16.70;1.00;;;;;;4977864;28;20283;-85
2022/09/02 07:56:01;;;;;;;5.28;2.00;;;16.70;99.90;;;;;;4989956;28;20049;-85
2022/09/02 07:58:27;;;;;;;2.42;2.20;;;16.80;99.90;;;;;;4989600;28;20557;-85
2022/09/02 08:00:55;;;;;;;2.53;2.00;;;16.90;99.90;;;;;;5021862;28;20196;-85
2022/09/02 08:03:23;;;;;;;2.78;1.92;;;17.10;99.90;;;;;;5005999;28;20104;-84
2022/09/02 08:05:49;;;;;;;4.47;2.00;;;17.10;87.80;;;;;;4989140;28;20108;-84
2022/09/02 08:08:17;;;;;;;2.17;1.83;;;17.30;96.30;;;;;;4999671;28;20466;-84
2022/09/02 08:10:43;;;;;;;3.28;1.77;;;17.40;39.50;;;;;;4993551;28;20042;-84
2022/09/02 08:13:09;;;;;;;4.68;2.22;;;17.50;1.00;;;;;;5016253;28;20091;-84
2022/09/02 08:15:36;;;;;;;5.28;1.95;;;17.60;1.00;;;;;;4992003;28;20033;-86
2022/09/02 08:18:04;;;;;;;4.60;1.85;;;17.70;1.00;;;;;;4990978;28;20506;-85
2022/09/02 08:20:30;;;;;;;3.67;1.65;;;17.80;99.90;;;;;;4970411;28;20137;-85
2022/09/02 08:22:57;;;;;;;3.35;1.80;;;17.90;99.90;;;;;;5017904;28;20142;-84
2022/09/02 08:25:23;;;;;;;4.38;1.80;;;18.00;99.90;;;;;;5028323;28;20055;-85
2022/09/02 08:27:49;;;;;;;7.32;1.90;;;18.20;99.90;;;;;;4975931;28;20535;-84
2022/09/02 08:30:15;;;;;;;4.97;1.90;;;18.40;99.90;;;;;;4982024;28;20100;-84
2022/09/02 08:32:40;;;;;;;2.30;1.70;;;18.40;99.90;;;;;;5016373;28;20121;-85
2022/09/02 08:35:08;;;;;;;3.35;1.77;;;18.50;99.90;;;;;;5019757;28;20034;-85
2022/09/02 08:37:36;;;;;;;4.88;1.83;;;18.60;99.90;;;;;;5003018;28;20408;-85
2022/09/02 08:40:05;;;;;;;2.70;1.48;;;18.70;99.90;;;;;;5025126;28;20232;-84
2022/09/02 08:42:38;;;;;;;5.60;1.70;;;18.90;99.90;;;;;;4993468;28;20042;-84
2022/09/02 08:45:11;;;;;;;2.97;1.63;;;19.10;99.90;;;;;;4999523;28;20409;-84
2022/09/02 08:47:38;;;;;;;3.25;1.83;;;19.10;99.90;;;;;;5032574;28;20053;-84
2022/09/02 08:50:14;;;;;;;2.35;1.60;;;19.30;99.90;;;;;;5017218;28;20033;-84
2022/09/02 08:52:54;;;;;;;1.98;1.60;;;19.40;99.90;;;;;;5000288;28;20046;-85
2022/09/02 08:55:27;;;;;;;2.08;1.50;;;19.60;99.90;;;;;;5020721;28;20087;-85
2022/09/02 08:57:55;;;;;;;1.58;1.40;;;19.70;99.90;;;;;;5012866;28;20430;-84
2022/09/02 09:00:21;;;;;;;3.13;1.52;;;19.80;99.90;;;;;;4984593;28;20456;-85
2022/09/02 09:03:29;;;;;;;2.65;1.60;;;19.90;98.20;;;;;;5008243;28;20073;-85
2022/09/02 09:06:06;;;;;;;3.85;1.70;;;20.00;77.80;;;;;;4985884;28;20049;-85
2022/09/02 09:08:44;;;;;;;1.63;1.48;;;20.20;39.30;;;;;;4983312;28;20053;-85
2022/09/02 09:11:17;;;;;;;2.50;1.30;;;20.40;68.30;;;;;;4979232;28;20137;-85
2022/09/02 09:14:17;;;;;;;3.72;1.85;;;20.40;10.90;;;;;;4985040;28;20026;-85
2022/09/02 09:17:07;;;;;;;2.60;1.60;;;20.60;15.00;;;;;;4996073;28;20045;-84
2022/09/02 09:19:53;;;;;;;2.13;1.60;;;20.80;1.00;;;;;;5011355;28;20453;-85
2022/09/02 09:22:31;;;;;;;5.20;1.60;;;20.90;1.00;;;;;;4994522;28;20362;-85
2022/09/02 09:24:58;;;;;;;4.05;1.80;;;20.90;1.00;;;;;;4994335;28;20512;-84
2022/09/02 09:27:24;;;;;;;3.00;1.50;;;21.00;1.00;;;;;;5016909;28;20117;-85
2022/09/02 09:29:51;;;;;;;2.97;1.70;;;21.10;1.00;;;;;;5032820;28;20047;-85
2022/09/02 09:32:45;;;;;;;3.08;1.60;;;21.20;99.90;;;;;;5022686;28;20165;-85
2022/09/02 09:35:13;;;;;;;2.10;1.40;;;21.40;99.90;;;;;;5011152;28;20352;-85
2022/09/02 09:37:49;;;;;;;2.80;1.35;;;21.50;99.90;;;;;;5016974;28;20128;-84
2022/09/02 09:40:22;;;;;;;2.25;1.02;;;21.40;99.90;;;;;;4995290;28;20072;-85
2022/09/02 09:42:54;;;;;;;6.15;1.95;;;21.70;99.90;;;;;;5031850;28;20045;-84
2022/09/02 09:45:30;;;;;;;2.45;1.40;;;21.80;99.90;;;;;;5034015;28;20172;-84
2022/09/02 09:48:28;;;;;;;2.40;1.48;;;21.80;99.90;;;;;;5020763;28;20512;-85
2022/09/02 09:50:54;;;;;;;2.75;1.40;;;22.10;99.90;;;;;;4988793;28;20195;-84
2022/09/02 09:53:25;;;;;;;2.55;1.42;;;22.20;99.90;;;;;;4991229;28;20463;-84
2022/09/02 09:56:00;;;;;;;3.75;1.52;;;22.40;99.90;;;;;;5019989;28;20413;-84
2022/09/02 09:58:31;;;;;;;3.80;1.30;;;22.50;99.90;;;;;;5037488;28;20367;-85
2022/09/02 10:00:59;;;;;;;4.97;1.45;;;22.80;99.90;;;;;;5028115;28;20077;-84
2022/09/02 10:03:28;;;;;;;3.28;1.60;;;22.70;99.90;;;;;;5019372;28;20249;-84
2022/09/02 10:05:56;;;;;;;4.40;1.60;;;22.70;99.90;;;;;;5013469;28;20073;-85
2022/09/02 10:08:25;;;;;;;3.45;1.42;;;22.80;99.90;;;;;;5007545;28;20152;-85
2022/09/02 10:11:00;;;;;;;4.70;1.60;;;22.90;99.90;;;;;;4992626;28;20045;-84
2022/09/02 10:13:29;;;;;;;4.95;1.40;;;23.00;99.90;;;;;;4991661;28;20037;-84
2022/09/02 10:16:17;;;;;;;3.70;1.60;;;23.10;99.90;;;;;;5022704;28;20037;-84
2022/09/02 10:19:16;;;;;;;3.38;1.50;;;23.20;99.90;;;;;;5029468;28;20061;-84
2022/09/02 10:22:13;;;;;;;5.57;1.95;;;23.30;99.90;;;;;;4993239;28;20052;-84
2022/09/02 10:24:51;;;;;;;2.60;1.40;;;23.60;99.90;;;;;;5012759;28;20094;-85
2022/09/02 10:27:41;;;;;;;2.13;1.40;;;23.50;99.90;;;;;;4986767;28;20619;-85
2022/09/02 10:30:15;;;;;;;3.38;1.40;;;23.50;99.90;;;;;;4988819;28;20042;-85
2022/09/02 10:32:59;;;;;;;5.65;1.30;;;23.80;99.90;;;;;;4993899;28;20068;-84
2022/09/02 10:35:38;;;;;;;4.20;1.88;;;23.80;99.90;;;;;;5000657;28;20520;-85
2022/09/02 10:38:42;;;;;;;3.00;1.17;;;23.80;99.90;;;;;;4984029;28;20144;-85
2022/09/02 10:41:24;;;;;;;2.80;1.42;;;23.90;99.90;;;;;;4990066;28;20570;-84
2022/09/02 10:44:14;;;;;;;2.38;1.25;;;24.00;99.90;;;;;;4993971;28;20076;-84
2022/09/02 10:47:02;;;;;;;5.00;1.30;;;24.20;99.90;;;;;;5009416;28;20068;-84
2022/09/02 10:50:00;;;;;;;3.25;1.45;;;24.30;99.90;;;;;;5013420;28;20113;-84
2022/09/02 10:52:55;;;;;;;3.13;1.17;;;24.40;99.90;;;;;;5002959;28;20045;-85
2022/09/02 10:55:43;;;;;;;4.95;1.23;;;24.50;99.90;;;;;;4995125;28;20085;-85
2022/09/02 10:58:37;;;;;;;2.03;1.17;;;24.70;99.90;;;;;;4993077;28;20112;-85
2022/09/02 11:01:09;;;;;;;5.15;1.90;;;24.70;99.90;;;;;;5016343;28;20037;-84
2022/09/02 11:04:00;;;;;;;1.85;1.35;;;24.60;99.90;;;;;;4988695;28;20029;-84
2022/09/02 11:06:34;;;;;;;2.00;1.02;;;24.70;99.90;;;;;;5021272;28;20054;-84
2022/09/02 11:09:05;;;;;;;1.70;1.15;;;24.80;99.90;;;;;;5031975;28;20050;-83
2022/09/02 11:11:59;;;;;;;2.78;1.23;;;25.10;99.90;;;;;;5008817;28;20072;-84
2022/09/02 11:14:36;;;;;;;4.13;1.30;;;25.00;99.90;;;;;;4977779;28;20052;-83
2022/09/02 11:17:18;;;;;;;2.17;1.10;;;25.10;99.90;;;;;;4986721;28;20034;-83
2022/09/02 11:20:07;;;;;;;2.28;1.20;;;24.90;99.90;;;;;;5025396;28;20046;-84
2022/09/02 11:22:58;;;;;;;2.22;1.17;;;25.10;99.90;;;;;;4976479;28;20046;-84
2022/09/02 11:25:29;;;;;;;2.90;1.23;;;25.30;99.90;;;;;;5003894;28;20536;-84
2022/09/02 11:28:04;;;;;;;4.03;1.10;;;25.40;99.90;;;;;;5017968;28;20416;-84
2022/09/02 11:30:34;;;;;;;;;;;25.70;99.90;;;;;;4991917;28;20049;-84
2022/09/02 11:33:15;;;;;;;1.80;1.05;;;25.60;99.90;;;;;;5003061;28;20001;-84
2022/09/02 11:35:41;;;;;;;3.63;1.10;;;25.50;99.90;;;;;;4991811;28;20056;-84
2022/09/02 11:38:22;;;;;;;2.20;1.10;;;25.60;99.60;;;;;;5028329;28;20528;-84
2022/09/02 11:40:48;;;;;;;1.02;0.90;;;26.20;99.80;;;;;;5032663;28;20062;-84
2022/09/02 11:43:25;;;;;;;3.65;1.20;;;26.00;95.80;;;;;;5002927;28;20489;-83
2022/09/02 11:46:08;;;;;;;2.13;1.10;;;26.30;91.60;;;;;;5026936;28;20037;-84
2022/09/02 11:48:51;;;;;;;2.30;1.00;;;26.50;92.30;;;;;;4982365;28;20248;-84
2022/09/02 11:51:29;;;;;;;7.57;1.15;;;26.40;88.30;;;;;;5016770;28;20037;-84
2022/09/02 11:53:56;;;;;;;3.03;1.17;;;26.70;89.70;;;;;;5010779;28;20092;-84
2022/09/02 11:56:24;;;;;;;1.63;1.08;;;26.90;85.50;;;;;;4982160;28;20375;-84
2022/09/02 11:58:51;;;;;;;5.15;1.20;;;26.70;75.40;;;;;;5024942;28;20071;-84
2022/09/02 12:01:32;;;;;;;1.55;1.08;;;26.80;69.20;;;;;;5012132;28;20029;-83
2022/09/02 12:04:03;;;;;;;1.25;0.90;;;27.10;56.80;;;;;;4988449;28;20104;-83
2022/09/02 12:06:29;;;;;;;1.17;0.98;;;26.90;38.90;;;;;;4982711;28;20596;-84
2022/09/02 12:09:02;;;;;;;8.35;3.67;;;27.00;39.40;;;;;;5027409;28;20053;-84
2022/09/02 12:11:40;;;;;;;1.50;0.90;;;27.20;34.30;;;;;;5014537;28;20389;-83
2022/09/02 12:14:10;;;;;;;1.80;1.00;;;27.00;22.00;;;;;;5025127;28;20042;-84
2022/09/02 12:16:41;;;;;;;2.17;0.93;;;26.90;18.30;;;;;;4997399;28;20089;-84
2022/09/02 12:19:10;;;;;;;1.65;1.00;;;27.30;17.70;;;;;;5036506;28;20754;-84
2022/09/02 12:22:17;;;;;;;2.38;1.00;;;27.10;9.90;;;;;;4993937;28;20485;-84
2022/09/02 12:24:50;;;;;;;1.67;1.20;;;27.00;7.80;;;;;;4985101;28;20200;-83
2022/09/02 12:27:35;;;;;;;3.30;1.20;;;27.20;7.90;;;;;;4993007;28;20034;-83
2022/09/02 12:30:03;;;;;;;2.13;1.20;;;27.20;4.00;;;;;;5015298;28;20041;-83
2022/09/02 12:32:51;;;;;;;1.48;1.13;;;27.50;1.40;;;;;;4995851;28;20562;-84
2022/09/02 12:35:39;;;;;;;1.83;0.90;;;27.30;1.00;;;;;;4990003;28;20084;-84
2022/09/02 12:38:11;;;;;;;1.02;0.93;;;27.20;1.00;;;;;;5015298;28;20045;-84
2022/09/02 12:40:48;;;;;;;2.88;1.30;;;27.60;1.00;;;;;;4993082;28;20070;-84
2022/09/02 12:43:52;;;;;;;3.58;0.98;;;27.80;1.00;;;;;;5003661;28;20042;-84
2022/09/02 12:46:17;;;;;;;2.17;1.00;;;27.70;1.00;;;;;;4989723;28;20050;-84
2022/09/02 12:48:55;;;;;;;2.83;1.20;;;28.10;1.00;;;;;;4990874;28;20133;-84
2022/09/02 12:51:56;;;;;;;2.97;1.10;;;27.80;1.00;;;;;;5018059;28;20045;-83
2022/09/02 12:54:47;;;;;;;3.88;1.20;;;27.80;1.00;;;;;;5029207;28;20101;-84
2022/09/02 12:57:18;;;;;;;4.25;1.00;;;27.90;1.00;;;;;;4982879;28;20084;-83
2022/09/02 12:59:45;;;;;;;2.42;1.05;;;28.40;1.00;;;;;;4993536;28;20045;-84
2022/09/02 13:02:32;;;;;;;2.72;1.10;;;28.20;1.00;;;;;;4992791;28;20033;-84
2022/09/02 13:05:10;;;;;;;1.85;0.98;;;28.50;1.00;;;;;;5006200;28;20042;-83
2022/09/02 13:08:16;;;;;;;2.30;1.05;;;29.00;1.00;;;;;;5026311;28;20069;-84
2022/09/02 13:11:24;;;;;;;3.55;1.70;;;28.60;1.00;;;;;;4994199;28;20162;-84
2022/09/02 13:14:08;;;;;;;2.70;1.08;;;29.10;1.00;;;;;;5033825;28;20043;-83